createdAt,value
2018-09-04T00:00:10.805Z,19.25
2018-09-04T00:01:13.670Z,19.25
2018-09-04T00:02:17.012Z,20.00
2018-09-04T00:03:19.899Z,20.00
2018-09-04T00:04:22.769Z,19.25
2018-09-04T00:05:25.633Z,21.75
2018-09-04T00:06:28.513Z,19.50
2018-09-04T00:07:31.380Z,19.00
2018-09-04T00:08:34.573Z,19.25
2018-09-04T00:09:37.859Z,20.00
2018-09-04T00:10:40.988Z,20.00
2018-09-04T00:11:43.909Z,22.50
2018-09-04T00:12:46.789Z,19.50
2018-09-04T00:13:49.686Z,20.50
2018-09-04T00:14:52.939Z,19.75
2018-09-04T00:15:55.791Z,19.50
2018-09-04T00:16:58.639Z,23.00
2018-09-04T00:18:01.642Z,22.50
2018-09-04T00:19:04.534Z,19.00
2018-09-04T00:20:07.415Z,22.00
2018-09-04T00:21:10.669Z,21.75
2018-09-04T00:22:13.541Z,20.50
2018-09-04T00:23:16.419Z,20.50
2018-09-04T00:24:19.300Z,19.50
2018-09-04T00:25:22.812Z,18.75
2018-09-04T00:26:25.760Z,16.75
2018-09-04T00:27:29.564Z,20.00
2018-09-04T00:28:32.436Z,20.00
2018-09-04T00:29:35.378Z,18.75
2018-09-04T00:30:38.249Z,19.75
2018-09-04T00:31:41.162Z,20.75
2018-09-04T00:32:44.078Z,20.25
2018-09-04T00:33:47.282Z,18.75
2018-09-04T00:34:50.361Z,17.75
2018-09-04T00:35:53.348Z,21.50
2018-09-04T00:36:56.205Z,21.00
2018-09-04T00:37:59.082Z,20.25
2018-09-04T00:39:01.900Z,18.50
2018-09-04T00:40:06.119Z,21.00
2018-09-04T00:41:09.053Z,18.50
2018-09-04T00:42:11.961Z,20.00
2018-09-04T00:43:14.837Z,19.25
2018-09-04T00:44:18.647Z,21.00
2018-09-04T00:45:21.536Z,20.75
2018-09-04T00:46:24.822Z,19.75
2018-09-04T00:47:27.690Z,21.50
2018-09-04T00:48:30.534Z,19.50
2018-09-04T00:49:33.414Z,20.00
2018-09-04T00:50:36.377Z,18.25
2018-09-04T00:51:39.308Z,21.00
2018-09-04T00:52:42.469Z,18.75
2018-09-04T00:53:45.346Z,19.75
2018-09-04T00:54:48.212Z,19.50
2018-09-04T00:55:51.120Z,17.75
2018-09-04T00:56:54.050Z,19.75
2018-09-04T00:57:56.905Z,20.75
2018-09-04T00:59:00.167Z,19.50
2018-09-04T01:00:03.100Z,20.75
2018-09-04T01:01:06.028Z,20.75
2018-09-04T01:02:08.928Z,19.00
2018-09-04T01:03:11.869Z,22.00
2018-09-04T01:04:24.209Z,19.00
2018-09-04T01:05:27.841Z,21.00
2018-09-04T01:06:31.021Z,20.75
2018-09-04T01:07:34.253Z,18.50
2018-09-04T01:08:37.398Z,17.75
2018-09-04T01:09:40.248Z,19.00
2018-09-04T01:10:43.404Z,20.75
2018-09-04T01:11:46.285Z,18.50
2018-09-04T01:12:49.184Z,17.75
2018-09-04T01:13:52.059Z,20.50
2018-09-04T01:14:54.915Z,19.50
2018-09-04T01:15:57.787Z,18.00
2018-09-04T01:17:01.097Z,20.75
2018-09-04T01:18:03.968Z,22.00
2018-09-04T01:19:07.004Z,21.25
2018-09-04T01:20:10.517Z,21.50
2018-09-04T01:21:13.368Z,19.00
2018-09-04T01:22:16.210Z,20.00
2018-09-04T01:23:19.365Z,20.00
2018-09-04T01:24:22.228Z,18.25
2018-09-04T01:25:25.083Z,22.50
2018-09-04T01:26:27.966Z,19.50
2018-09-04T01:27:30.952Z,17.50
2018-09-04T01:28:34.118Z,19.50
2018-09-04T01:29:37.263Z,24.25
2018-09-04T01:30:41.801Z,19.00
2018-09-04T01:31:45.603Z,18.50
2018-09-04T01:32:48.456Z,21.00
2018-09-04T01:33:51.678Z,18.00
2018-09-04T01:34:54.513Z,20.75
2018-09-04T01:35:57.673Z,21.75
2018-09-04T01:37:00.535Z,19.75
2018-09-04T01:38:03.414Z,20.50
2018-09-04T01:39:06.275Z,20.50
2018-09-04T01:40:09.160Z,21.00
2018-09-04T01:41:12.048Z,19.25
2018-09-04T01:42:15.253Z,20.50
2018-09-04T01:43:18.104Z,19.75
2018-09-04T01:44:20.963Z,19.75
2018-09-04T01:45:23.803Z,19.00
2018-09-04T01:46:26.669Z,19.75
2018-09-04T01:47:29.513Z,19.75
2018-09-04T01:48:32.678Z,17.25
2018-09-04T01:49:35.525Z,18.00
2018-09-04T01:50:38.406Z,20.00
2018-09-04T01:51:41.257Z,18.00
2018-09-04T01:52:44.113Z,20.00
2018-09-04T01:53:46.948Z,19.75
2018-09-04T01:54:50.149Z,22.50
2018-09-04T01:55:53.063Z,20.25
2018-09-04T01:56:56.846Z,18.00
2018-09-04T01:57:59.693Z,16.75
2018-09-04T01:59:02.562Z,18.00
2018-09-04T02:00:05.622Z,19.25
2018-09-04T02:01:08.783Z,20.25
2018-09-04T02:02:11.621Z,17.75
2018-09-04T02:03:15.136Z,19.75
2018-09-04T02:04:18.003Z,20.00
2018-09-04T02:05:20.864Z,18.00
2018-09-04T02:06:23.759Z,18.00
2018-09-04T02:07:27.095Z,20.25
2018-09-04T02:08:29.980Z,17.25
2018-09-04T02:09:32.913Z,19.50
2018-09-04T02:10:35.771Z,19.25
2018-09-04T02:11:38.722Z,21.50
2018-09-04T02:12:41.595Z,20.00
2018-09-04T02:13:44.782Z,20.50
2018-09-04T02:14:47.635Z,20.75
2018-09-04T02:15:50.546Z,16.25
2018-09-04T02:16:53.527Z,17.75
2018-09-04T02:17:56.404Z,20.75
2018-09-04T02:18:59.261Z,19.75
2018-09-04T02:20:02.448Z,21.25
2018-09-04T02:21:05.297Z,19.75
2018-09-04T02:22:08.196Z,22.50
2018-09-04T02:23:11.151Z,21.25
2018-09-04T02:24:13.996Z,21.00
2018-09-04T02:25:16.880Z,22.00
2018-09-04T02:26:20.062Z,18.75
2018-09-04T02:27:22.982Z,20.75
2018-09-04T02:28:25.883Z,18.50
2018-09-04T02:29:28.779Z,23.00
2018-09-04T02:30:31.642Z,20.25
2018-09-04T02:31:34.505Z,19.75
2018-09-04T02:32:37.717Z,18.00
2018-09-04T02:33:40.581Z,18.00
2018-09-04T02:34:43.436Z,19.75
2018-09-04T02:35:46.334Z,18.00
2018-09-04T02:36:49.209Z,20.00
2018-09-04T02:37:52.110Z,22.25
2018-09-04T02:38:55.272Z,17.50
2018-09-04T02:39:58.137Z,18.50
2018-09-04T02:41:01.032Z,21.25
2018-09-04T02:42:03.901Z,18.00
2018-09-04T02:43:06.816Z,20.00
2018-09-04T02:44:09.752Z,18.25
2018-09-04T02:45:13.925Z,17.50
2018-09-04T02:46:16.828Z,17.50
2018-09-04T02:47:19.749Z,19.75
2018-09-04T02:48:22.633Z,21.25
2018-09-04T02:49:25.558Z,17.75
2018-09-04T02:50:28.441Z,19.75
2018-09-04T02:51:31.683Z,18.50
2018-09-04T02:52:34.589Z,19.25
2018-09-04T02:53:37.613Z,19.00
2018-09-04T02:54:40.492Z,18.75
2018-09-04T02:55:43.354Z,20.75
2018-09-04T02:56:46.205Z,18.00
2018-09-04T02:57:49.391Z,19.75
2018-09-04T02:58:52.361Z,20.75
2018-09-04T02:59:55.235Z,16.75
2018-09-04T03:00:58.109Z,19.00
2018-09-04T03:02:01.036Z,21.00
2018-09-04T03:03:03.914Z,21.25
2018-09-04T03:04:07.146Z,21.50
2018-09-04T03:05:10.068Z,18.25
2018-09-04T03:06:12.960Z,18.00
2018-09-04T03:07:15.822Z,18.00
2018-09-04T03:08:18.708Z,21.00
2018-09-04T03:09:21.568Z,18.75
2018-09-04T03:10:24.874Z,20.75
2018-09-04T03:11:27.799Z,17.00
2018-09-04T03:12:30.762Z,19.75
2018-09-04T03:13:33.696Z,18.75
2018-09-04T03:14:36.628Z,18.75
2018-09-04T03:15:39.509Z,17.75
2018-09-04T03:16:42.698Z,20.50
2018-09-04T03:17:45.545Z,18.00
2018-09-04T03:18:48.428Z,21.00
2018-09-04T03:19:51.300Z,18.00
2018-09-04T03:20:54.239Z,19.00
2018-09-04T03:21:57.126Z,20.00
2018-09-04T03:23:00.414Z,20.00
2018-09-04T03:24:03.306Z,19.75
2018-09-04T03:25:06.189Z,19.75
2018-09-04T03:26:09.078Z,18.50
2018-09-04T03:27:11.959Z,20.50
2018-09-04T03:28:14.828Z,20.75
2018-09-04T03:29:18.006Z,17.75
2018-09-04T03:30:20.890Z,18.00
2018-09-04T03:31:23.781Z,18.25
2018-09-04T03:32:26.690Z,19.25
2018-09-04T03:33:29.613Z,19.75
2018-09-04T03:34:32.525Z,20.00
2018-09-04T03:35:35.672Z,16.00
2018-09-04T03:36:38.769Z,19.75
2018-09-04T03:37:41.675Z,20.25
2018-09-04T03:38:44.543Z,20.25
2018-09-04T03:39:47.592Z,19.75
2018-09-04T03:40:50.453Z,21.75
2018-09-04T03:41:53.341Z,19.75
2018-09-04T03:42:56.293Z,18.75
2018-09-04T03:44:00.274Z,20.50
2018-09-04T03:45:03.279Z,20.00
2018-09-04T03:46:06.143Z,15.75
2018-09-04T03:47:10.129Z,19.75
2018-09-04T03:48:13.220Z,21.00
2018-09-04T03:49:16.101Z,19.25
2018-09-04T03:50:18.970Z,19.25
2018-09-04T03:51:21.868Z,18.00
2018-09-04T03:52:24.846Z,17.50
2018-09-04T03:53:28.014Z,21.25
2018-09-04T03:54:31.047Z,17.25
2018-09-04T03:55:33.898Z,18.25
2018-09-04T03:56:36.840Z,17.00
2018-09-04T03:57:39.688Z,19.75
2018-09-04T03:58:42.569Z,17.25
2018-09-04T03:59:45.768Z,18.00
2018-09-04T04:00:48.657Z,17.75
2018-09-04T04:01:51.526Z,18.00
2018-09-04T04:02:54.388Z,17.00
2018-09-04T04:03:57.229Z,18.00
2018-09-04T04:05:00.106Z,15.00
2018-09-04T04:06:03.001Z,17.25
2018-09-04T04:07:05.871Z,17.00
2018-09-04T04:08:08.749Z,17.00
2018-09-04T04:09:12.450Z,16.50
2018-09-04T04:10:15.294Z,14.50
2018-09-04T04:11:18.471Z,18.00
2018-09-04T04:12:21.337Z,17.25
2018-09-04T04:13:24.180Z,15.50
2018-09-04T04:14:27.060Z,16.50
2018-09-04T04:15:29.919Z,15.50
2018-09-04T04:16:32.772Z,18.00
2018-09-04T04:17:36.027Z,16.00
2018-09-04T04:18:38.985Z,18.25
2018-09-04T04:19:41.896Z,14.25
2018-09-04T04:21:00.643Z,17.25
2018-09-04T04:22:03.562Z,17.00
2018-09-04T04:23:06.656Z,17.00
2018-09-04T04:24:10.537Z,16.50
2018-09-04T04:25:13.437Z,14.50
2018-09-04T04:26:16.312Z,17.00
2018-09-04T04:27:19.184Z,17.00
2018-09-04T04:28:22.061Z,17.50
2018-09-04T04:29:25.023Z,20.50
2018-09-04T04:30:28.208Z,17.75
2018-09-04T04:31:31.030Z,14.25
2018-09-04T04:32:34.002Z,16.50
2018-09-04T04:33:36.882Z,17.00
2018-09-04T04:34:39.791Z,17.75
2018-09-04T04:35:42.749Z,16.25
2018-09-04T04:36:45.936Z,16.75
2018-09-04T04:37:48.786Z,17.50
2018-09-04T04:38:51.673Z,18.75
2018-09-04T04:39:54.683Z,19.50
2018-09-04T04:40:57.545Z,18.00
2018-09-04T04:42:00.427Z,16.50
2018-09-04T04:43:03.626Z,15.75
2018-09-04T04:44:06.509Z,17.00
2018-09-04T04:45:09.494Z,18.00
2018-09-04T04:46:13.492Z,18.00
2018-09-04T04:47:16.537Z,17.25
2018-09-04T04:48:19.745Z,18.25
2018-09-04T04:49:22.918Z,16.00
2018-09-04T04:50:25.801Z,17.00
2018-09-04T04:51:28.677Z,17.25
2018-09-04T04:52:31.607Z,15.75
2018-09-04T04:53:34.501Z,20.00
2018-09-04T04:54:37.489Z,20.25
2018-09-04T04:55:42.044Z,20.75
2018-09-04T04:56:44.914Z,20.50
2018-09-04T04:57:47.775Z,17.75
2018-09-04T04:58:50.663Z,17.50
2018-09-04T04:59:53.896Z,17.75
2018-09-04T05:00:57.714Z,16.75
2018-09-04T05:02:02.593Z,19.75
2018-09-04T05:03:05.506Z,18.75
2018-09-04T05:04:08.519Z,17.25
2018-09-04T05:05:11.407Z,16.50
2018-09-04T05:06:14.272Z,18.50
2018-09-04T05:07:17.167Z,14.00
2018-09-04T05:08:20.418Z,18.00
2018-09-04T05:09:23.392Z,15.75
2018-09-04T05:10:26.246Z,17.25
2018-09-04T05:11:29.164Z,15.75
2018-09-04T05:12:32.151Z,20.00
2018-09-04T05:13:35.151Z,17.25
2018-09-04T05:14:39.544Z,17.75
2018-09-04T05:15:42.486Z,17.50
2018-09-04T05:16:45.393Z,19.00
2018-09-04T05:17:48.335Z,17.75
2018-09-04T05:18:51.237Z,18.50
2018-09-04T05:19:54.335Z,16.00
2018-09-04T05:20:58.993Z,19.50
2018-09-04T05:22:01.882Z,17.00
2018-09-04T05:23:04.752Z,18.00
2018-09-04T05:24:07.605Z,17.00
2018-09-04T05:25:10.534Z,17.00
2018-09-04T05:26:14.307Z,17.75
2018-09-04T05:27:17.936Z,17.50
2018-09-04T05:28:20.815Z,17.75
2018-09-04T05:29:23.726Z,18.50
2018-09-04T05:30:26.635Z,20.50
2018-09-04T05:33:52.149Z,18.50
2018-09-04T05:34:55.052Z,21.25
2018-09-04T05:35:59.408Z,21.25
2018-09-04T05:37:02.293Z,19.00
2018-09-04T05:38:05.779Z,16.75
2018-09-04T05:39:08.928Z,18.75
2018-09-04T05:40:11.946Z,20.75
2018-09-04T05:41:14.989Z,20.00
2018-09-04T05:42:25.620Z,19.50
2018-09-04T05:43:37.432Z,19.75
2018-09-04T05:44:40.582Z,18.25
2018-09-04T05:45:44.020Z,18.50
2018-09-04T05:46:49.199Z,19.00
2018-09-04T05:47:55.967Z,19.25
2018-09-04T05:48:59.480Z,18.00
2018-09-04T05:50:02.941Z,15.50
2018-09-04T05:51:06.779Z,20.50
2018-09-04T05:52:09.962Z,18.25
2018-09-04T05:53:12.947Z,19.50
2018-09-04T05:54:15.946Z,20.75
2018-09-04T05:55:18.990Z,22.75
2018-09-04T05:56:21.908Z,20.25
2018-09-04T05:57:24.772Z,18.00
2018-09-04T05:58:27.985Z,18.00
2018-09-04T05:59:30.854Z,18.00
2018-09-04T06:01:04.350Z,20.25
2018-09-04T06:02:07.297Z,18.00
2018-09-04T06:03:10.232Z,19.50
2018-09-04T06:04:13.185Z,19.00
2018-09-04T06:05:16.833Z,18.00
2018-09-04T06:06:21.978Z,18.00
2018-09-04T06:07:25.294Z,20.25
2018-09-04T06:08:29.466Z,18.75
2018-09-04T06:09:32.341Z,21.00
2018-09-04T06:10:36.478Z,20.25
2018-09-04T06:11:41.272Z,20.75
2018-09-04T06:12:44.558Z,22.00
2018-09-04T06:13:47.528Z,20.50
2018-09-04T06:14:50.475Z,20.50
2018-09-04T06:15:53.382Z,19.75
2018-09-04T06:16:56.346Z,20.50
2018-09-04T06:17:59.503Z,20.00
2018-09-04T06:19:02.662Z,21.00
2018-09-04T06:20:05.602Z,20.50
2018-09-04T06:21:09.076Z,20.75
2018-09-04T06:22:11.977Z,20.75
2018-09-04T06:23:15.840Z,21.75
2018-09-04T06:24:20.975Z,20.25
2018-09-04T06:25:23.911Z,23.75
2018-09-04T06:26:26.799Z,25.00
2018-09-04T06:27:29.796Z,22.75
2018-09-04T06:28:32.677Z,25.25
2018-09-04T06:29:35.664Z,27.00
2018-09-04T06:30:39.116Z,25.00
2018-09-04T06:31:42.033Z,22.75
2018-09-04T06:32:45.931Z,21.00
2018-09-04T06:33:48.869Z,26.00
2018-09-04T06:34:51.774Z,23.25
2018-09-04T06:35:55.047Z,23.00
2018-09-04T06:36:58.376Z,21.75
2018-09-04T06:38:02.283Z,21.75
2018-09-04T06:39:05.650Z,25.50
2018-09-04T06:40:09.546Z,26.00
2018-09-04T06:41:12.448Z,23.25
2018-09-04T06:42:15.289Z,23.25
2018-09-04T06:43:18.770Z,25.00
2018-09-04T06:44:22.179Z,19.75
2018-09-04T06:45:25.603Z,24.25
2018-09-04T06:46:28.627Z,25.00
2018-09-04T06:47:32.446Z,23.50
2018-09-04T06:48:37.642Z,25.25
2018-09-04T06:49:41.826Z,27.75
2018-09-04T06:50:44.888Z,23.50
2018-09-04T06:51:48.880Z,26.00
2018-09-04T06:52:53.332Z,28.00
2018-09-04T06:53:56.270Z,26.25
2018-09-04T06:54:59.221Z,25.25
2018-09-04T06:56:02.614Z,27.00
2018-09-04T06:57:05.564Z,23.75
2018-09-04T06:58:08.519Z,24.25
2018-09-04T06:59:11.705Z,25.00
2018-09-04T07:00:15.517Z,26.25
2018-09-04T07:01:18.375Z,26.50
2018-09-04T07:02:21.589Z,28.25
2018-09-04T07:03:24.443Z,26.25
2018-09-04T07:04:27.413Z,25.25
2018-09-04T07:05:30.344Z,23.75
2018-09-04T07:06:33.282Z,23.50
2018-09-04T07:07:36.697Z,25.00
2018-09-04T07:08:39.910Z,24.75
2018-09-04T07:09:43.255Z,26.25
2018-09-04T07:10:46.185Z,24.50
2018-09-04T07:11:49.219Z,24.50
2018-09-04T07:12:52.760Z,26.25
2018-09-04T07:13:57.287Z,27.50
2018-09-04T07:15:02.173Z,28.25
2018-09-04T07:16:05.123Z,32.00
2018-09-04T07:17:08.212Z,32.25
2018-09-04T07:18:11.169Z,33.75
2018-09-04T07:19:17.018Z,35.25
2018-09-04T07:20:20.970Z,34.50
2018-09-04T07:21:24.224Z,34.75
2018-09-04T07:22:27.097Z,39.75
2018-09-04T07:23:30.548Z,36.50
2018-09-04T07:24:34.159Z,38.75
2018-09-04T07:25:38.256Z,39.00
2018-09-04T07:26:41.116Z,39.75
2018-09-04T07:27:44.381Z,42.00
2018-09-04T07:28:47.262Z,39.75
2018-09-04T07:29:52.491Z,37.75
2018-09-04T07:30:55.553Z,38.75
2018-09-04T07:31:59.104Z,36.25
2018-09-04T07:33:02.019Z,36.75
2018-09-04T07:34:05.477Z,33.50
2018-09-04T07:35:10.148Z,33.75
2018-09-04T07:36:16.535Z,32.00
2018-09-04T07:37:20.477Z,32.50
2018-09-04T07:38:23.373Z,31.25
2018-09-04T07:39:27.798Z,31.25
2018-09-04T07:40:35.440Z,29.00
2018-09-04T07:41:39.578Z,29.00
2018-09-04T07:42:42.588Z,31.00
2018-09-04T07:43:45.524Z,30.75
2018-09-04T07:44:48.661Z,29.00
2018-09-04T07:45:52.031Z,31.00
2018-09-04T07:46:54.986Z,28.75
2018-09-04T07:47:58.416Z,23.75
2018-09-04T07:49:01.324Z,27.75
2018-09-04T07:50:04.237Z,27.75
2018-09-04T07:51:07.528Z,26.00
2018-09-04T07:52:10.706Z,26.75
2018-09-04T07:53:14.526Z,26.50
2018-09-04T07:54:17.437Z,27.75
2018-09-04T07:55:20.308Z,27.75
2018-09-04T07:56:23.401Z,27.50
2018-09-04T07:57:27.481Z,25.00
2018-09-04T07:58:31.693Z,26.50
2018-09-04T07:59:35.635Z,26.75
2018-09-04T08:00:38.527Z,26.25
2018-09-04T08:01:41.500Z,24.75
2018-09-04T08:02:44.444Z,25.75
2018-09-04T08:03:48.472Z,27.25
2018-09-04T08:04:51.387Z,27.00
2018-09-04T08:05:54.324Z,25.25
2018-09-04T08:06:57.243Z,27.00
2018-09-04T08:08:01.582Z,25.75
2018-09-04T08:09:05.728Z,25.75
2018-09-04T08:10:09.530Z,27.00
2018-09-04T08:11:12.576Z,25.75
2018-09-04T08:12:15.453Z,26.50
2018-09-04T08:13:18.355Z,29.25
2018-09-04T08:14:21.277Z,27.25
2018-09-04T08:15:24.225Z,29.50
2018-09-04T08:16:27.521Z,26.75
2018-09-04T08:17:30.961Z,26.75
2018-09-04T08:18:36.384Z,26.75
2018-09-04T08:19:40.731Z,26.75
2018-09-04T08:20:44.420Z,27.75
2018-09-04T08:21:47.396Z,25.75
2018-09-04T08:22:51.916Z,27.25
2018-09-04T08:23:54.797Z,26.75
2018-09-04T08:24:58.256Z,26.75
2018-09-04T08:26:02.174Z,27.75
2018-09-04T08:27:06.077Z,29.25
2018-09-04T08:28:09.060Z,29.00
2018-09-04T08:29:12.208Z,29.00
2018-09-04T08:30:15.095Z,29.00
2018-09-04T08:31:18.027Z,27.25
2018-09-04T08:32:21.059Z,26.00
2018-09-04T08:33:23.975Z,26.25
2018-09-04T08:34:27.649Z,28.75
2018-09-04T08:35:31.889Z,26.00
2018-09-04T08:36:36.478Z,28.00
2018-09-04T08:37:39.417Z,28.00
2018-09-04T08:38:47.860Z,28.00
2018-09-04T08:39:52.322Z,28.75
2018-09-04T08:40:57.069Z,25.75
2018-09-04T08:42:01.081Z,22.75
2018-09-04T08:43:04.589Z,24.25
2018-09-04T08:44:07.529Z,23.00
2018-09-04T08:45:10.399Z,25.00
2018-09-04T08:46:13.359Z,22.00
2018-09-04T08:47:16.354Z,25.00
2018-09-04T08:48:20.669Z,24.00
2018-09-04T08:49:24.186Z,26.75
2018-09-04T08:50:27.881Z,26.25
2018-09-04T08:51:31.472Z,25.00
2018-09-04T08:52:37.704Z,24.25
2018-09-04T08:53:40.689Z,26.25
2018-09-04T08:54:43.670Z,26.25
2018-09-04T08:55:47.300Z,26.50
2018-09-04T08:56:51.692Z,26.75
2018-09-04T08:57:54.667Z,24.00
2018-09-04T08:58:57.561Z,24.75
2018-09-04T09:00:02.812Z,25.50
2018-09-04T09:01:06.443Z,26.00
2018-09-04T09:02:09.355Z,25.00
2018-09-04T09:03:13.345Z,24.75
2018-09-04T09:04:16.397Z,24.75
2018-09-04T09:05:20.484Z,25.75
2018-09-04T09:06:25.920Z,25.75
2018-09-04T09:07:28.799Z,25.50
2018-09-04T09:08:33.128Z,26.00
2018-09-04T09:09:36.232Z,25.25
2018-09-04T09:11:53.799Z,25.00
2018-09-04T09:12:57.676Z,25.75
2018-09-04T09:14:00.562Z,27.00
2018-09-04T09:15:04.441Z,25.75
2018-09-04T09:16:07.378Z,25.25
2018-09-04T09:17:10.567Z,24.75
2018-09-04T09:18:13.769Z,25.75
2018-09-04T09:19:16.691Z,27.00
2018-09-04T09:20:19.595Z,26.00
2018-09-04T09:21:23.306Z,26.75
2018-09-04T09:22:26.419Z,26.75
2018-09-04T09:23:30.088Z,26.00
2018-09-04T09:24:32.958Z,26.00
2018-09-04T09:25:35.881Z,25.75
2018-09-04T09:26:39.452Z,28.00
2018-09-04T09:27:46.105Z,26.75
2018-09-04T09:28:49.727Z,27.00
2018-09-04T09:29:56.946Z,25.50
2018-09-04T09:31:01.376Z,26.50
2018-09-04T09:32:05.450Z,26.00
2018-09-04T09:33:09.404Z,26.00
2018-09-04T09:34:12.323Z,26.00
2018-09-04T09:35:15.280Z,25.75
2018-09-04T09:36:18.744Z,25.50
2018-09-04T09:37:22.713Z,26.00
2018-09-04T09:38:26.222Z,22.75
2018-09-04T09:39:29.196Z,24.75
2018-09-04T09:40:32.189Z,24.75
2018-09-04T09:41:35.248Z,23.25
2018-09-04T09:42:38.633Z,22.75
2018-09-04T09:43:41.603Z,23.25
2018-09-04T09:44:46.153Z,25.25
2018-09-04T09:45:50.599Z,24.00
2018-09-04T10:33:08.687Z,25.00
2018-09-04T10:34:11.784Z,24.75
2018-09-04T10:35:15.465Z,24.00
2018-09-04T10:36:18.570Z,21.75
2018-09-04T10:37:23.132Z,21.00
2018-09-04T10:38:27.178Z,21.50
2018-09-04T10:39:35.482Z,22.75
2018-09-04T10:40:43.578Z,21.00
2018-09-04T10:41:46.459Z,19.50
2018-09-04T10:42:49.359Z,21.75
2018-09-04T10:43:52.245Z,20.75
2018-09-04T10:44:58.050Z,19.00
2018-09-04T10:46:06.346Z,21.25
2018-09-04T10:47:09.785Z,18.25
2018-09-04T10:48:15.049Z,17.00
2018-09-04T10:49:19.873Z,19.75
2018-09-04T10:50:24.680Z,21.50
2018-09-04T10:51:30.300Z,21.00
2018-09-04T10:52:33.218Z,20.00
2018-09-04T10:53:36.582Z,22.00
2018-09-04T10:54:39.821Z,20.25
2018-09-04T10:55:42.839Z,22.00
2018-09-04T10:56:45.865Z,21.00
2018-09-04T10:57:49.868Z,20.25
2018-09-04T10:58:52.929Z,21.75
2018-09-04T10:59:55.876Z,21.00
2018-09-04T11:00:59.262Z,22.00
2018-09-04T11:02:02.329Z,20.75
2018-09-04T11:03:06.478Z,22.00
2018-09-04T11:04:09.732Z,21.75
2018-09-04T11:05:15.300Z,22.00
2018-09-04T11:06:18.243Z,22.75
2018-09-04T11:07:21.191Z,21.75
2018-09-04T11:08:25.055Z,21.00
2018-09-04T11:09:28.523Z,21.75
2018-09-04T11:10:32.750Z,20.75
2018-09-04T11:11:35.624Z,21.50
2018-09-04T11:12:39.436Z,21.75
2018-09-04T11:13:44.020Z,21.75
2018-09-04T11:14:47.013Z,21.75
2018-09-04T11:15:50.861Z,21.75
2018-09-04T11:16:54.624Z,20.50
2018-09-04T11:17:57.829Z,21.00
2018-09-04T11:19:01.854Z,21.00
2018-09-04T11:20:04.835Z,20.00
2018-09-04T11:21:07.716Z,18.25
2018-09-04T11:22:10.661Z,20.00
2018-09-04T11:23:19.080Z,20.00
2018-09-04T11:24:22.942Z,20.75
2018-09-04T11:25:25.898Z,20.00
2018-09-04T11:26:29.001Z,20.25
2018-09-04T11:27:32.102Z,21.75
2018-09-04T11:28:34.994Z,17.75
2018-09-04T11:29:38.200Z,19.25
2018-09-04T11:30:41.120Z,18.25
2018-09-04T11:31:44.073Z,19.50
2018-09-04T11:32:47.014Z,17.50
2018-09-04T11:33:50.100Z,18.00
2018-09-04T11:34:53.305Z,20.00
2018-09-04T11:35:56.612Z,18.25
2018-09-04T11:36:59.487Z,20.00
2018-09-04T11:38:02.530Z,20.00
2018-09-04T11:39:05.588Z,18.00
2018-09-04T11:40:09.622Z,21.50
2018-09-04T11:41:14.600Z,19.75
2018-09-04T11:42:18.022Z,20.75
2018-09-04T11:43:23.193Z,20.75
2018-09-04T11:44:26.056Z,21.00
2018-09-04T11:45:29.304Z,21.50
2018-09-04T11:46:32.397Z,20.75
2018-09-04T11:47:35.308Z,22.00
2018-09-04T11:48:39.951Z,20.50
2018-09-04T11:49:44.124Z,18.25
2018-09-04T11:50:47.242Z,21.00
2018-09-04T11:51:50.172Z,20.75
2018-09-04T11:52:54.676Z,20.25
2018-09-04T11:53:58.465Z,20.50
2018-09-04T11:55:01.762Z,21.00
2018-09-04T11:57:14.632Z,20.25
2018-09-04T11:58:18.811Z,21.50
2018-09-04T11:59:23.349Z,21.00
2018-09-04T12:00:31.534Z,21.00
2018-09-04T12:01:34.829Z,21.00
2018-09-04T12:02:40.030Z,21.00
2018-09-04T12:03:43.247Z,23.75
2018-09-04T12:04:46.429Z,21.00
2018-09-04T12:05:49.490Z,20.75
2018-09-04T12:06:52.421Z,23.00
2018-09-04T12:07:55.283Z,22.00
2018-09-04T12:08:58.296Z,21.00
2018-09-04T12:10:02.262Z,22.00
2018-09-04T12:11:05.193Z,21.50
2018-09-04T12:12:08.488Z,20.75
2018-09-04T12:13:11.505Z,18.00
2018-09-04T12:14:17.476Z,19.75
2018-09-04T12:15:20.374Z,20.25
2018-09-04T12:16:23.441Z,19.75
2018-09-04T12:17:26.382Z,20.00
2018-09-04T12:18:30.277Z,18.50
2018-09-04T12:19:33.826Z,18.50
2018-09-04T12:20:36.843Z,19.00
2018-09-04T12:21:39.841Z,18.00
2018-09-04T12:22:43.080Z,20.25
2018-09-04T12:23:46.090Z,20.00
2018-09-04T12:24:50.382Z,19.25
2018-09-04T12:25:55.355Z,18.25
2018-09-04T12:26:58.252Z,19.75
2018-09-04T12:28:02.644Z,20.50
2018-09-04T12:29:05.528Z,19.25
2018-09-04T12:30:08.444Z,20.75
2018-09-04T12:31:13.006Z,20.75
2018-09-04T12:32:15.903Z,19.50
2018-09-04T12:33:18.813Z,20.00
2018-09-04T12:34:23.350Z,20.00
2018-09-04T12:35:26.315Z,19.75
2018-09-04T12:36:30.347Z,19.75
2018-09-04T12:37:33.606Z,19.50
2018-09-04T12:38:38.839Z,20.00
2018-09-04T12:39:45.743Z,20.00
2018-09-04T12:40:49.369Z,19.50
2018-09-04T12:41:53.456Z,18.50
2018-09-04T12:42:57.496Z,20.00
2018-09-04T12:44:00.828Z,20.00
2018-09-04T12:45:04.425Z,20.50
2018-09-04T12:46:07.348Z,21.50
2018-09-04T12:47:11.318Z,20.25
2018-09-04T12:48:18.612Z,21.00
2018-09-04T12:49:22.532Z,21.00
2018-09-04T12:50:25.752Z,20.00
2018-09-04T12:51:28.686Z,19.25
2018-09-04T12:52:31.599Z,19.00
2018-09-04T12:53:34.963Z,20.00
2018-09-04T12:54:37.903Z,19.00
2018-09-04T12:55:40.786Z,19.75
2018-09-04T12:56:43.993Z,19.00
2018-09-04T12:57:47.821Z,18.75
2018-09-04T12:58:50.762Z,18.75
2018-09-04T12:59:55.852Z,20.75
2018-09-04T13:01:00.250Z,20.75
2018-09-04T13:02:03.166Z,20.00
2018-09-04T13:03:06.468Z,19.25
2018-09-04T13:04:09.437Z,20.50
2018-09-04T13:05:12.443Z,19.25
2018-09-04T13:06:15.375Z,19.50
2018-09-04T13:07:18.355Z,20.75
2018-09-04T13:08:22.477Z,20.50
2018-09-04T13:09:26.691Z,20.00
2018-09-04T13:10:29.616Z,20.50
2018-09-04T13:11:32.541Z,20.00
2018-09-04T13:12:36.906Z,21.00
2018-09-04T13:13:40.569Z,19.50
2018-09-04T13:14:45.301Z,20.00
2018-09-04T13:15:50.562Z,20.00
2018-09-04T13:16:53.533Z,19.00
2018-09-04T13:17:57.438Z,18.25
2018-09-04T13:19:00.490Z,19.00
2018-09-04T13:20:04.332Z,18.75
2018-09-04T13:21:07.317Z,19.00
2018-09-04T13:22:11.193Z,20.75
2018-09-04T13:23:14.067Z,21.00
2018-09-04T13:24:17.793Z,23.50
2018-09-04T13:25:20.732Z,21.75
2018-09-04T13:26:23.899Z,21.00
2018-09-04T13:27:26.825Z,23.25
2018-09-04T13:28:31.349Z,22.00
2018-09-04T13:29:34.247Z,22.25
2018-09-04T13:30:39.622Z,21.25
2018-09-04T13:31:42.524Z,21.75
2018-09-04T13:32:46.320Z,20.25
2018-09-04T13:33:49.233Z,21.75
2018-09-04T13:34:53.427Z,22.25
2018-09-04T13:35:56.952Z,22.00
2018-09-04T13:37:02.106Z,21.75
2018-09-04T13:38:05.140Z,21.50
2018-09-04T13:39:08.489Z,22.00
2018-09-04T13:40:12.474Z,21.75
2018-09-04T13:41:15.383Z,21.00
2018-09-04T13:42:19.066Z,19.00
2018-09-04T13:43:23.640Z,22.50
2018-09-04T13:44:26.748Z,20.50
2018-09-04T13:45:34.237Z,20.00
2018-09-04T13:46:38.490Z,18.00
2018-09-04T13:47:41.363Z,19.25
2018-09-04T13:48:44.336Z,18.75
2018-09-04T13:49:47.311Z,18.50
2018-09-04T13:50:51.288Z,18.75
2018-09-04T13:51:57.282Z,18.00
2018-09-04T13:53:01.377Z,17.50
2018-09-04T13:54:05.860Z,18.25
2018-09-04T13:55:10.091Z,18.00
2018-09-04T13:56:12.998Z,18.00
2018-09-04T13:57:16.556Z,17.00
2018-09-04T13:58:20.495Z,17.75
2018-09-04T13:59:24.959Z,18.25
2018-09-04T14:00:29.379Z,18.50
2018-09-04T14:01:32.272Z,18.00
2018-09-04T14:02:35.965Z,22.00
2018-09-04T14:03:39.130Z,20.00
2018-09-04T14:04:50.463Z,20.00
2018-09-04T14:05:55.563Z,21.75
2018-09-04T14:07:01.695Z,22.50
2018-09-04T14:08:05.634Z,21.00
2018-09-04T14:09:12.199Z,20.25
2018-09-04T14:10:15.383Z,20.25
2018-09-04T14:11:18.480Z,21.00
2018-09-04T14:12:21.390Z,19.00
2018-09-04T14:13:24.720Z,20.25
2018-09-04T14:14:27.677Z,19.50
2018-09-04T14:15:30.617Z,21.00
2018-09-04T14:16:43.146Z,21.50
2018-09-04T14:17:38.668Z,22.75
2018-09-04T14:18:43.247Z,23.00
2018-09-04T14:19:46.326Z,18.75
2018-09-04T14:20:49.411Z,19.25
2018-09-04T14:21:53.710Z,19.75
2018-09-04T14:22:57.644Z,20.75
2018-09-04T14:24:00.659Z,18.00
2018-09-04T14:25:03.633Z,17.50
2018-09-04T14:26:06.531Z,18.75
2018-09-04T14:27:09.433Z,19.00
2018-09-04T14:28:12.327Z,18.00